sensor_id;sensor_type;location;lat;lon;timestamp;P1;durP1;ratioP1;P2;durP2;ratioP2
14738;SDS011;7461;52.440;13.540;2023-03-11T00:01:01;26.45;;;23.90;;
14738;SDS011;7461;52.440;13.540;2023-03-11T00:03:28;29.23;;;23.80;;
14738;SDS011;7461;52.440;13.540;2023-03-11T00:05:55;28.98;;;26.17;;
14738;SDS011;7461;52.440;13.540;2023-03-11T00:08:26;28.63;;;24.75;;
14738;SDS011;7461;52.440;13.540;2023-03-11T00:10:55;26.60;;;24.08;;
14738;SDS011;7461;52.440;13.540;2023-03-11T00:13:25;29.35;;;26.33;;
14738;SDS011;7461;52.440;13.540;2023-03-11T00:15:53;28.00;;;25.27;;
14738;SDS011;7461;52.440;13.540;2023-03-11T00:18:21;29.10;;;25.92;;
14738;SDS011;7461;52.440;13.540;2023-03-11T00:20:51;27.60;;;24.98;;
14738;SDS011;7461;52.440;13.540;2023-03-11T00:23:18;27.35;;;24.65;;
14738;SDS011;7461;52.440;13.540;2023-03-11T00:25:46;30.63;;;27.70;;
14738;SDS011;7461;52.440;13.540;2023-03-11T00:28:14;28.17;;;25.92;;
14738;SDS011;7461;52.440;13.540;2023-03-11T00:30:42;25.05;;;22.75;;
14738;SDS011;7461;52.440;13.540;2023-03-11T00:33:10;23.67;;;21.50;;
14738;SDS011;7461;52.440;13.540;2023-03-11T00:35:38;26.67;;;23.98;;
14738;SDS011;7461;52.440;13.540;2023-03-11T00:38:06;29.63;;;26.98;;
14738;SDS011;7461;52.440;13.540;2023-03-11T00:40:34;25.75;;;23.25;;
14738;SDS011;7461;52.440;13.540;2023-03-11T00:43:02;24.52;;;22.20;;
14738;SDS011;7461;52.440;13.540;2023-03-11T00:45:31;24.98;;;22.50;;
14738;SDS011;7461;52.440;13.540;2023-03-11T00:47:58;25.50;;;23.25;;
14738;SDS011;7461;52.440;13.540;2023-03-11T00:50:26;30.98;;;28.10;;
14738;SDS011;7461;52.440;13.540;2023-03-11T00:52:54;26.80;;;24.42;;
14738;SDS011;7461;52.440;13.540;2023-03-11T00:55:22;27.67;;;25.08;;
14738;SDS011;7461;52.440;13.540;2023-03-11T00:57:50;27.77;;;25.48;;
14738;SDS011;7461;52.440;13.540;2023-03-11T01:00:19;23.17;;;21.13;;
14738;SDS011;7461;52.440;13.540;2023-03-11T01:02:48;24.38;;;22.15;;
14738;SDS011;7461;52.440;13.540;2023-03-11T01:05:16;23.77;;;21.40;;
14738;SDS011;7461;52.440;13.540;2023-03-11T01:07:44;24.23;;;21.77;;
14738;SDS011;7461;52.440;13.540;2023-03-11T01:10:11;24.05;;;21.92;;
14738;SDS011;7461;52.440;13.540;2023-03-11T01:12:38;24.77;;;22.48;;
14738;SDS011;7461;52.440;13.540;2023-03-11T01:15:06;24.23;;;22.23;;
14738;SDS011;7461;52.440;13.540;2023-03-11T01:17:34;25.02;;;22.30;;
14738;SDS011;7461;52.440;13.540;2023-03-11T01:20:02;24.95;;;22.85;;
14738;SDS011;7461;52.440;13.540;2023-03-11T01:22:32;25.95;;;23.58;;
14738;SDS011;7461;52.440;13.540;2023-03-11T01:24:59;25.95;;;23.60;;
14738;SDS011;7461;52.440;13.540;2023-03-11T01:27:26;27.17;;;24.80;;
14738;SDS011;7461;52.440;13.540;2023-03-11T01:29:55;27.48;;;25.27;;
14738;SDS011;7461;52.440;13.540;2023-03-11T01:32:22;25.27;;;23.05;;
14738;SDS011;7461;52.440;13.540;2023-03-11T01:34:49;29.00;;;26.58;;
14738;SDS011;7461;52.440;13.540;2023-03-11T01:37:18;29.95;;;27.13;;
14738;SDS011;7461;52.440;13.540;2023-03-11T01:39:45;29.25;;;26.80;;
14738;SDS011;7461;52.440;13.540;2023-03-11T01:42:15;29.05;;;26.55;;
14738;SDS011;7461;52.440;13.540;2023-03-11T01:44:42;30.50;;;28.05;;
14738;SDS011;7461;52.440;13.540;2023-03-11T01:49:55;32.72;;;30.10;;
14738;SDS011;7461;52.440;13.540;2023-03-11T01:52:24;31.63;;;29.10;;
14738;SDS011;7461;52.440;13.540;2023-03-11T01:54:51;34.65;;;31.75;;
14738;SDS011;7461;52.440;13.540;2023-03-11T01:57:19;28.10;;;25.90;;
14738;SDS011;7461;52.440;13.540;2023-03-11T01:59:48;27.42;;;25.02;;
14738;SDS011;7461;52.440;13.540;2023-03-11T02:02:17;28.80;;;26.25;;
14738;SDS011;7461;52.440;13.540;2023-03-11T02:04:45;27.08;;;24.60;;
14738;SDS011;7461;52.440;13.540;2023-03-11T02:07:13;21.23;;;19.42;;
14738;SDS011;7461;52.440;13.540;2023-03-11T02:09:42;23.70;;;21.42;;
14738;SDS011;7461;52.440;13.540;2023-03-11T02:12:09;20.17;;;18.48;;
14738;SDS011;7461;52.440;13.540;2023-03-11T02:14:37;16.70;;;15.20;;
14738;SDS011;7461;52.440;13.540;2023-03-11T02:17:06;16.20;;;14.77;;
14738;SDS011;7461;52.440;13.540;2023-03-11T02:19:36;14.75;;;13.70;;
14738;SDS011;7461;52.440;13.540;2023-03-11T02:22:07;12.10;;;11.10;;
14738;SDS011;7461;52.440;13.540;2023-03-11T02:24:36;12.57;;;11.57;;
14738;SDS011;7461;52.440;13.540;2023-03-11T02:27:07;9.27;;;8.57;;
14738;SDS011;7461;52.440;13.540;2023-03-11T02:29:34;9.82;;;8.98;;
14738;SDS011;7461;52.440;13.540;2023-03-11T02:32:03;7.35;;;6.85;;
14738;SDS011;7461;52.440;13.540;2023-03-11T02:34:44;6.20;;;5.80;;
14738;SDS011;7461;52.440;13.540;2023-03-11T02:37:11;7.28;;;6.22;;
14738;SDS011;7461;52.440;13.540;2023-03-11T02:39:40;6.25;;;5.75;;
14738;SDS011;7461;52.440;13.540;2023-03-11T02:42:11;5.75;;;5.35;;
14738;SDS011;7461;52.440;13.540;2023-03-11T02:44:40;5.10;;;4.70;;
14738;SDS011;7461;52.440;13.540;2023-03-11T02:47:08;5.43;;;5.03;;
14738;SDS011;7461;52.440;13.540;2023-03-11T02:49:35;4.65;;;4.35;;
14738;SDS011;7461;52.440;13.540;2023-03-11T02:52:03;4.78;;;4.40;;
14738;SDS011;7461;52.440;13.540;2023-03-11T02:54:30;4.63;;;4.32;;
14738;SDS011;7461;52.440;13.540;2023-03-11T02:56:57;5.43;;;4.97;;
14738;SDS011;7461;52.440;13.540;2023-03-11T02:59:26;4.53;;;4.22;;
14738;SDS011;7461;52.440;13.540;2023-03-11T03:01:53;4.97;;;4.57;;
14738;SDS011;7461;52.440;13.540;2023-03-11T03:07:24;5.00;;;4.60;;
14738;SDS011;7461;52.440;13.540;2023-03-11T03:09:51;5.45;;;5.05;;
14738;SDS011;7461;52.440;13.540;2023-03-11T03:12:18;4.60;;;4.20;;
14738;SDS011;7461;52.440;13.540;2023-03-11T03:14:47;4.65;;;4.40;;
14738;SDS011;7461;52.440;13.540;2023-03-11T03:17:14;6.93;;;6.35;;
14738;SDS011;7461;52.440;13.540;2023-03-11T03:19:42;6.80;;;6.30;;
14738;SDS011;7461;52.440;13.540;2023-03-11T03:22:09;6.18;;;5.78;;
14738;SDS011;7461;52.440;13.540;2023-03-11T03:24:36;5.82;;;5.43;;
14738;SDS011;7461;52.440;13.540;2023-03-11T03:27:03;5.88;;;5.47;;
14738;SDS011;7461;52.440;13.540;2023-03-11T03:29:31;6.88;;;6.47;;
14738;SDS011;7461;52.440;13.540;2023-03-11T03:31:59;6.53;;;6.03;;
14738;SDS011;7461;52.440;13.540;2023-03-11T03:34:26;6.97;;;6.28;;
14738;SDS011;7461;52.440;13.540;2023-03-11T03:36:53;7.07;;;6.53;;
14738;SDS011;7461;52.440;13.540;2023-03-11T03:39:21;6.97;;;6.47;;
14738;SDS011;7461;52.440;13.540;2023-03-11T03:41:50;6.95;;;6.45;;
14738;SDS011;7461;52.440;13.540;2023-03-11T03:44:18;7.40;;;6.88;;
14738;SDS011;7461;52.440;13.540;2023-03-11T03:46:45;7.07;;;6.68;;
14738;SDS011;7461;52.440;13.540;2023-03-11T03:49:14;7.47;;;6.88;;
14738;SDS011;7461;52.440;13.540;2023-03-11T03:51:41;7.20;;;6.70;;
14738;SDS011;7461;52.440;13.540;2023-03-11T03:54:08;6.40;;;5.90;;
14738;SDS011;7461;52.440;13.540;2023-03-11T03:56:35;7.93;;;7.30;;
14738;SDS011;7461;52.440;13.540;2023-03-11T03:59:03;8.57;;;7.20;;
14738;SDS011;7461;52.440;13.540;2023-03-11T04:01:30;9.00;;;8.30;;
14738;SDS011;7461;52.440;13.540;2023-03-11T04:03:57;8.35;;;7.75;;
14738;SDS011;7461;52.440;13.540;2023-03-11T04:06:26;9.20;;;8.45;;
14738;SDS011;7461;52.440;13.540;2023-03-11T04:08:53;9.32;;;8.63;;
14738;SDS011;7461;52.440;13.540;2023-03-11T04:11:20;9.73;;;8.90;;
14738;SDS011;7461;52.440;13.540;2023-03-11T04:13:48;9.40;;;8.70;;
14738;SDS011;7461;52.440;13.540;2023-03-11T04:16:16;8.65;;;8.05;;
14738;SDS011;7461;52.440;13.540;2023-03-11T04:26:59;10.10;;;9.20;;
14738;SDS011;7461;52.440;13.540;2023-03-11T04:29:27;10.52;;;9.73;;
14738;SDS011;7461;52.440;13.540;2023-03-11T04:31:54;10.57;;;9.55;;
14738;SDS011;7461;52.440;13.540;2023-03-11T04:34:22;11.07;;;10.13;;
14738;SDS011;7461;52.440;13.540;2023-03-11T04:36:50;9.05;;;8.45;;
14738;SDS011;7461;52.440;13.540;2023-03-11T04:39:17;9.80;;;9.10;;
14738;SDS011;7461;52.440;13.540;2023-03-11T04:41:44;10.18;;;9.38;;
14738;SDS011;7461;52.440;13.540;2023-03-11T04:44:13;10.13;;;9.23;;
14738;SDS011;7461;52.440;13.540;2023-03-11T04:46:40;8.82;;;8.13;;
14738;SDS011;7461;52.440;13.540;2023-03-11T04:49:07;9.60;;;8.68;;
14738;SDS011;7461;52.440;13.540;2023-03-11T04:51:35;11.25;;;10.35;;
14738;SDS011;7461;52.440;13.540;2023-03-11T04:54:02;9.95;;;9.23;;
14738;SDS011;7461;52.440;13.540;2023-03-11T04:56:30;9.90;;;9.10;;
14738;SDS011;7461;52.440;13.540;2023-03-11T04:58:57;9.35;;;8.65;;
14738;SDS011;7461;52.440;13.540;2023-03-11T05:01:25;10.13;;;9.32;;
14738;SDS011;7461;52.440;13.540;2023-03-11T05:03:53;7.65;;;7.10;;
14738;SDS011;7461;52.440;13.540;2023-03-11T05:06:20;8.77;;;8.07;;
14738;SDS011;7461;52.440;13.540;2023-03-11T05:08:47;8.25;;;7.60;;
14738;SDS011;7461;52.440;13.540;2023-03-11T05:11:14;8.88;;;8.05;;
14738;SDS011;7461;52.440;13.540;2023-03-11T05:13:42;7.97;;;7.28;;
14738;SDS011;7461;52.440;13.540;2023-03-11T05:16:09;9.10;;;8.38;;
14738;SDS011;7461;52.440;13.540;2023-03-11T05:18:37;8.38;;;7.75;;
14738;SDS011;7461;52.440;13.540;2023-03-11T05:21:05;9.32;;;8.60;;
14738;SDS011;7461;52.440;13.540;2023-03-11T05:23:32;11.75;;;10.57;;
14738;SDS011;7461;52.440;13.540;2023-03-11T05:25:59;11.25;;;10.52;;
14738;SDS011;7461;52.440;13.540;2023-03-11T05:28:26;10.32;;;9.48;;
14738;SDS011;7461;52.440;13.540;2023-03-11T05:30:54;10.00;;;9.13;;
14738;SDS011;7461;52.440;13.540;2023-03-11T05:36:26;9.02;;;8.30;;
14738;SDS011;7461;52.440;13.540;2023-03-11T05:38:53;10.60;;;9.75;;
14738;SDS011;7461;52.440;13.540;2023-03-11T05:41:20;10.18;;;9.20;;
14738;SDS011;7461;52.440;13.540;2023-03-11T05:43:47;11.10;;;10.18;;
14738;SDS011;7461;52.440;13.540;2023-03-11T05:49:06;12.43;;;11.23;;
14738;SDS011;7461;52.440;13.540;2023-03-11T05:51:35;9.82;;;9.13;;
14738;SDS011;7461;52.440;13.540;2023-03-11T05:54:02;9.98;;;9.20;;
14738;SDS011;7461;52.440;13.540;2023-03-11T05:56:35;10.05;;;8.93;;
14738;SDS011;7461;52.440;13.540;2023-03-11T05:59:02;9.52;;;8.82;;
14738;SDS011;7461;52.440;13.540;2023-03-11T06:01:30;10.15;;;9.45;;
14738;SDS011;7461;52.440;13.540;2023-03-11T06:03:57;9.63;;;8.82;;
14738;SDS011;7461;52.440;13.540;2023-03-11T06:06:24;10.20;;;9.45;;
14738;SDS011;7461;52.440;13.540;2023-03-11T06:08:54;10.38;;;9.57;;
14738;SDS011;7461;52.440;13.540;2023-03-11T06:11:21;9.93;;;9.00;;
14738;SDS011;7461;52.440;13.540;2023-03-11T06:13:50;9.93;;;9.23;;
14738;SDS011;7461;52.440;13.540;2023-03-11T06:16:18;11.00;;;9.63;;
14738;SDS011;7461;52.440;13.540;2023-03-11T06:18:45;11.52;;;10.63;;
14738;SDS011;7461;52.440;13.540;2023-03-11T06:21:14;12.05;;;11.13;;
14738;SDS011;7461;52.440;13.540;2023-03-11T06:23:42;10.93;;;10.10;;
14738;SDS011;7461;52.440;13.540;2023-03-11T06:26:12;11.88;;;10.77;;
14738;SDS011;7461;52.440;13.540;2023-03-11T06:28:42;11.93;;;10.77;;
14738;SDS011;7461;52.440;13.540;2023-03-11T06:31:10;10.45;;;9.45;;
14738;SDS011;7461;52.440;13.540;2023-03-11T06:33:37;11.27;;;10.32;;
14738;SDS011;7461;52.440;13.540;2023-03-11T06:36:05;12.80;;;11.60;;
14738;SDS011;7461;52.440;13.540;2023-03-11T06:38:32;12.32;;;10.55;;
14738;SDS011;7461;52.440;13.540;2023-03-11T06:41:00;10.60;;;9.80;;
14738;SDS011;7461;52.440;13.540;2023-03-11T06:43:29;12.38;;;11.38;;
14738;SDS011;7461;52.440;13.540;2023-03-11T06:45:59;12.10;;;11.20;;
14738;SDS011;7461;52.440;13.540;2023-03-11T06:48:26;14.23;;;13.05;;
14738;SDS011;7461;52.440;13.540;2023-03-11T06:50:54;11.65;;;10.75;;
14738;SDS011;7461;52.440;13.540;2023-03-11T06:53:21;14.80;;;12.52;;
14738;SDS011;7461;52.440;13.540;2023-03-11T06:55:56;15.18;;;13.88;;
14738;SDS011;7461;52.440;13.540;2023-03-11T06:58:24;13.75;;;12.57;;
14738;SDS011;7461;52.440;13.540;2023-03-11T07:00:53;12.25;;;11.07;;
14738;SDS011;7461;52.440;13.540;2023-03-11T07:03:22;14.18;;;13.07;;
14738;SDS011;7461;52.440;13.540;2023-03-11T07:05:50;14.75;;;13.60;;
14738;SDS011;7461;52.440;13.540;2023-03-11T07:08:17;15.65;;;14.07;;
14738;SDS011;7461;52.440;13.540;2023-03-11T07:10:45;16.23;;;13.88;;
14738;SDS011;7461;52.440;13.540;2023-03-11T07:13:13;14.75;;;13.65;;
14738;SDS011;7461;52.440;13.540;2023-03-11T07:15:40;14.10;;;12.93;;
14738;SDS011;7461;52.440;13.540;2023-03-11T07:18:09;14.63;;;13.15;;
14738;SDS011;7461;52.440;13.540;2023-03-11T07:20:36;14.18;;;12.90;;
14738;SDS011;7461;52.440;13.540;2023-03-11T07:23:03;14.60;;;13.25;;
14738;SDS011;7461;52.440;13.540;2023-03-11T07:25:31;14.05;;;12.77;;
14738;SDS011;7461;52.440;13.540;2023-03-11T07:27:58;14.43;;;13.10;;
14738;SDS011;7461;52.440;13.540;2023-03-11T07:30:25;15.18;;;13.98;;
14738;SDS011;7461;52.440;13.540;2023-03-11T07:32:52;17.45;;;15.05;;
14738;SDS011;7461;52.440;13.540;2023-03-11T07:35:21;14.20;;;13.18;;
14738;SDS011;7461;52.440;13.540;2023-03-11T07:37:48;13.82;;;12.52;;
14738;SDS011;7461;52.440;13.540;2023-03-11T07:40:15;14.93;;;13.52;;
14738;SDS011;7461;52.440;13.540;2023-03-11T07:42:42;15.50;;;13.95;;
14738;SDS011;7461;52.440;13.540;2023-03-11T07:45:10;14.48;;;13.27;;
14738;SDS011;7461;52.440;13.540;2023-03-11T07:47:37;15.50;;;14.07;;
14738;SDS011;7461;52.440;13.540;2023-03-11T07:50:04;17.10;;;15.60;;
14738;SDS011;7461;52.440;13.540;2023-03-11T07:52:33;16.98;;;15.15;;
14738;SDS011;7461;52.440;13.540;2023-03-11T07:55:00;16.27;;;14.77;;
14738;SDS011;7461;52.440;13.540;2023-03-11T07:57:28;15.88;;;14.68;;
14738;SDS011;7461;52.440;13.540;2023-03-11T07:59:55;17.65;;;16.05;;
14738;SDS011;7461;52.440;13.540;2023-03-11T08:02:22;17.48;;;16.00;;
14738;SDS011;7461;52.440;13.540;2023-03-11T08:04:49;15.40;;;14.10;;
14738;SDS011;7461;52.440;13.540;2023-03-11T08:07:17;16.73;;;15.27;;
14738;SDS011;7461;52.440;13.540;2023-03-11T08:09:46;17.10;;;15.55;;
14738;SDS011;7461;52.440;13.540;2023-03-11T08:12:13;18.50;;;16.55;;
14738;SDS011;7461;52.440;13.540;2023-03-11T08:14:41;22.42;;;17.00;;
14738;SDS011;7461;52.440;13.540;2023-03-11T08:17:08;17.85;;;16.13;;
14738;SDS011;7461;52.440;13.540;2023-03-11T08:19:36;18.52;;;16.40;;
14738;SDS011;7461;52.440;13.540;2023-03-11T08:22:05;19.63;;;17.80;;
14738;SDS011;7461;52.440;13.540;2023-03-11T08:24:32;18.40;;;16.60;;
14738;SDS011;7461;52.440;13.540;2023-03-11T08:27:01;19.27;;;17.65;;
14738;SDS011;7461;52.440;13.540;2023-03-11T08:29:28;19.40;;;17.77;;
14738;SDS011;7461;52.440;13.540;2023-03-11T08:31:55;21.35;;;19.48;;
14738;SDS011;7461;52.440;13.540;2023-03-11T08:34:26;20.02;;;18.17;;
14738;SDS011;7461;52.440;13.540;2023-03-11T08:36:53;22.55;;;20.63;;
14738;SDS011;7461;52.440;13.540;2023-03-11T08:39:20;19.13;;;17.30;;
14738;SDS011;7461;52.440;13.540;2023-03-11T08:41:51;21.98;;;19.90;;
14738;SDS011;7461;52.440;13.540;2023-03-11T08:44:19;23.52;;;21.40;;
14738;SDS011;7461;52.440;13.540;2023-03-11T08:46:46;21.23;;;19.27;;
14738;SDS011;7461;52.440;13.540;2023-03-11T08:49:14;22.33;;;20.10;;
14738;SDS011;7461;52.440;13.540;2023-03-11T08:51:41;18.92;;;17.33;;
14738;SDS011;7461;52.440;13.540;2023-03-11T08:54:08;20.13;;;18.33;;
14738;SDS011;7461;52.440;13.540;2023-03-11T08:56:35;20.05;;;18.25;;
14738;SDS011;7461;52.440;13.540;2023-03-11T08:59:02;20.35;;;17.40;;
14738;SDS011;7461;52.440;13.540;2023-03-11T09:01:31;18.13;;;16.60;;
14738;SDS011;7461;52.440;13.540;2023-03-11T09:03:58;19.02;;;17.38;;
14738;SDS011;7461;52.440;13.540;2023-03-11T09:06:25;20.00;;;18.15;;
14738;SDS011;7461;52.440;13.540;2023-03-11T09:08:55;20.02;;;18.20;;
14738;SDS011;7461;52.440;13.540;2023-03-11T09:11:22;20.75;;;18.70;;
14738;SDS011;7461;52.440;13.540;2023-03-11T09:13:50;18.02;;;16.52;;
14738;SDS011;7461;52.440;13.540;2023-03-11T09:16:18;18.42;;;16.80;;
14738;SDS011;7461;52.440;13.540;2023-03-11T09:18:46;19.08;;;17.27;;
14738;SDS011;7461;52.440;13.540;2023-03-11T09:21:14;18.33;;;16.98;;
14738;SDS011;7461;52.440;13.540;2023-03-11T09:23:41;17.38;;;16.02;;
14738;SDS011;7461;52.440;13.540;2023-03-11T09:26:08;19.40;;;17.80;;
14738;SDS011;7461;52.440;13.540;2023-03-11T09:28:35;20.48;;;18.80;;
14738;SDS011;7461;52.440;13.540;2023-03-11T09:31:05;18.08;;;16.50;;
14738;SDS011;7461;52.440;13.540;2023-03-11T09:33:35;17.48;;;15.98;;
14738;SDS011;7461;52.440;13.540;2023-03-11T09:36:04;18.98;;;17.58;;
14738;SDS011;7461;52.440;13.540;2023-03-11T09:38:32;18.30;;;16.70;;
14738;SDS011;7461;52.440;13.540;2023-03-11T09:41:00;20.80;;;18.80;;
14738;SDS011;7461;52.440;13.540;2023-03-11T09:43:32;19.55;;;17.98;;
14738;SDS011;7461;52.440;13.540;2023-03-11T09:46:03;19.45;;;17.55;;
14738;SDS011;7461;52.440;13.540;2023-03-11T09:48:33;18.73;;;16.88;;
14738;SDS011;7461;52.440;13.540;2023-03-11T09:51:07;19.77;;;18.05;;
14738;SDS011;7461;52.440;13.540;2023-03-11T09:53:37;20.15;;;18.33;;
14738;SDS011;7461;52.440;13.540;2023-03-11T09:56:07;22.15;;;19.83;;
14738;SDS011;7461;52.440;13.540;2023-03-11T09:58:35;17.30;;;15.82;;
14738;SDS011;7461;52.440;13.540;2023-03-11T10:01:08;20.13;;;18.38;;
14738;SDS011;7461;52.440;13.540;2023-03-11T10:03:38;17.80;;;16.20;;
14738;SDS011;7461;52.440;13.540;2023-03-11T10:06:13;20.77;;;19.08;;
14738;SDS011;7461;52.440;13.540;2023-03-11T10:08:42;19.67;;;17.83;;
14738;SDS011;7461;52.440;13.540;2023-03-11T10:11:13;18.63;;;16.73;;
14738;SDS011;7461;52.440;13.540;2023-03-11T10:13:43;20.63;;;18.65;;
14738;SDS011;7461;52.440;13.540;2023-03-11T10:16:12;19.95;;;18.08;;
14738;SDS011;7461;52.440;13.540;2023-03-11T10:18:45;19.27;;;17.67;;
14738;SDS011;7461;52.440;13.540;2023-03-11T10:21:17;21.40;;;19.55;;
14738;SDS011;7461;52.440;13.540;2023-03-11T10:23:54;20.60;;;18.75;;
14738;SDS011;7461;52.440;13.540;2023-03-11T10:26:24;21.55;;;19.70;;
14738;SDS011;7461;52.440;13.540;2023-03-11T10:28:57;22.13;;;20.25;;
14738;SDS011;7461;52.440;13.540;2023-03-11T10:31:28;19.70;;;18.00;;
14738;SDS011;7461;52.440;13.540;2023-03-11T10:33:57;18.55;;;17.17;;
14738;SDS011;7461;52.440;13.540;2023-03-11T10:36:33;21.20;;;19.35;;
14738;SDS011;7461;52.440;13.540;2023-03-11T10:39:01;22.13;;;20.40;;
14738;SDS011;7461;52.440;13.540;2023-03-11T10:41:30;24.08;;;21.85;;
14738;SDS011;7461;52.440;13.540;2023-03-11T10:43:59;23.48;;;21.48;;
14738;SDS011;7461;52.440;13.540;2023-03-11T10:46:28;23.90;;;21.98;;
14738;SDS011;7461;52.440;13.540;2023-03-11T10:48:55;25.50;;;23.23;;
14738;SDS011;7461;52.440;13.540;2023-03-11T10:51:23;27.48;;;25.27;;
14738;SDS011;7461;52.440;13.540;2023-03-11T10:53:52;27.10;;;24.73;;
14738;SDS011;7461;52.440;13.540;2023-03-11T10:56:24;25.30;;;23.17;;
14738;SDS011;7461;52.440;13.540;2023-03-11T10:58:51;29.33;;;26.55;;
14738;SDS011;7461;52.440;13.540;2023-03-11T11:01:18;27.55;;;25.17;;
14738;SDS011;7461;52.440;13.540;2023-03-11T11:03:46;26.65;;;24.45;;
14738;SDS011;7461;52.440;13.540;2023-03-11T11:06:18;31.20;;;28.63;;
14738;SDS011;7461;52.440;13.540;2023-03-11T11:08:46;24.65;;;22.55;;
14738;SDS011;7461;52.440;13.540;2023-03-11T11:11:20;24.35;;;22.20;;
14738;SDS011;7461;52.440;13.540;2023-03-11T11:13:54;25.20;;;23.13;;
14738;SDS011;7461;52.440;13.540;2023-03-11T11:16:22;23.70;;;21.67;;
14738;SDS011;7461;52.440;13.540;2023-03-11T11:18:53;25.58;;;23.02;;
14738;SDS011;7461;52.440;13.540;2023-03-11T11:21:26;24.40;;;22.50;;
14738;SDS011;7461;52.440;13.540;2023-03-11T11:24:00;25.65;;;23.27;;
14738;SDS011;7461;52.440;13.540;2023-03-11T11:26:30;25.83;;;23.52;;
14738;SDS011;7461;52.440;13.540;2023-03-11T11:29:11;26.13;;;24.05;;
14738;SDS011;7461;52.440;13.540;2023-03-11T11:31:39;26.55;;;24.23;;
14738;SDS011;7461;52.440;13.540;2023-03-11T11:34:21;27.50;;;25.13;;
14738;SDS011;7461;52.440;13.540;2023-03-11T11:36:50;28.10;;;25.88;;
14738;SDS011;7461;52.440;13.540;2023-03-11T11:39:17;26.38;;;24.33;;
14738;SDS011;7461;52.440;13.540;2023-03-11T11:41:47;28.58;;;26.17;;
14738;SDS011;7461;52.440;13.540;2023-03-11T11:44:16;30.23;;;27.63;;
14738;SDS011;7461;52.440;13.540;2023-03-11T11:46:46;28.77;;;26.15;;
14738;SDS011;7461;52.440;13.540;2023-03-11T11:49:15;26.88;;;24.83;;
14738;SDS011;7461;52.440;13.540;2023-03-11T11:51:45;27.67;;;25.42;;
14738;SDS011;7461;52.440;13.540;2023-03-11T11:54:14;29.80;;;27.23;;
14738;SDS011;7461;52.440;13.540;2023-03-11T11:56:43;26.55;;;24.50;;
14738;SDS011;7461;52.440;13.540;2023-03-11T11:59:14;27.85;;;25.27;;
14738;SDS011;7461;52.440;13.540;2023-03-11T12:01:44;29.38;;;27.17;;
14738;SDS011;7461;52.440;13.540;2023-03-11T12:04:23;28.70;;;26.42;;
14738;SDS011;7461;52.440;13.540;2023-03-11T12:06:53;29.02;;;26.70;;
14738;SDS011;7461;52.440;13.540;2023-03-11T12:09:24;28.38;;;26.08;;
14738;SDS011;7461;52.440;13.540;2023-03-11T12:11:53;27.08;;;25.10;;
14738;SDS011;7461;52.440;13.540;2023-03-11T12:14:25;24.65;;;22.67;;
14738;SDS011;7461;52.440;13.540;2023-03-11T12:16:56;25.02;;;23.20;;
14738;SDS011;7461;52.440;13.540;2023-03-11T12:19:29;23.40;;;21.70;;
14738;SDS011;7461;52.440;13.540;2023-03-11T12:24:51;22.20;;;20.60;;
14738;SDS011;7461;52.440;13.540;2023-03-11T12:27:23;21.02;;;19.55;;
14738;SDS011;7461;52.440;13.540;2023-03-11T12:29:54;23.02;;;21.25;;
14738;SDS011;7461;52.440;13.540;2023-03-11T12:32:22;19.50;;;18.20;;
14738;SDS011;7461;52.440;13.540;2023-03-11T12:34:50;18.98;;;17.60;;
14738;SDS011;7461;52.440;13.540;2023-03-11T12:37:18;19.83;;;17.95;;
14738;SDS011;7461;52.440;13.540;2023-03-11T12:39:47;16.55;;;15.55;;
14738;SDS011;7461;52.440;13.540;2023-03-11T12:42:15;17.55;;;16.25;;
14738;SDS011;7461;52.440;13.540;2023-03-11T12:44:42;14.70;;;13.70;;
14738;SDS011;7461;52.440;13.540;2023-03-11T12:47:19;16.70;;;15.55;;
14738;SDS011;7461;52.440;13.540;2023-03-11T12:49:46;16.13;;;15.00;;
14738;SDS011;7461;52.440;13.540;2023-03-11T12:52:16;16.70;;;15.32;;
14738;SDS011;7461;52.440;13.540;2023-03-11T12:54:45;17.33;;;15.95;;
14738;SDS011;7461;52.440;13.540;2023-03-11T12:57:25;16.75;;;15.55;;
14738;SDS011;7461;52.440;13.540;2023-03-11T13:02:50;16.67;;;15.27;;
14738;SDS011;7461;52.440;13.540;2023-03-11T13:05:23;14.90;;;13.73;;
14738;SDS011;7461;52.440;13.540;2023-03-11T13:07:53;15.32;;;14.23;;
14738;SDS011;7461;52.440;13.540;2023-03-11T13:10:34;14.43;;;13.23;;
14738;SDS011;7461;52.440;13.540;2023-03-11T13:15:44;14.25;;;13.15;;
14738;SDS011;7461;52.440;13.540;2023-03-11T13:18:15;12.25;;;11.40;;
14738;SDS011;7461;52.440;13.540;2023-03-11T13:20:44;14.30;;;13.25;;
14738;SDS011;7461;52.440;13.540;2023-03-11T13:23:20;16.10;;;14.82;;
14738;SDS011;7461;52.440;13.540;2023-03-11T13:28:38;14.02;;;13.00;;
14738;SDS011;7461;52.440;13.540;2023-03-11T13:31:12;14.32;;;13.40;;
14738;SDS011;7461;52.440;13.540;2023-03-11T13:33:44;12.68;;;11.68;;
14738;SDS011;7461;52.440;13.540;2023-03-11T13:36:17;14.18;;;12.93;;
14738;SDS011;7461;52.440;13.540;2023-03-11T13:38:53;13.48;;;12.50;;
14738;SDS011;7461;52.440;13.540;2023-03-11T13:41:25;13.73;;;12.52;;
14738;SDS011;7461;52.440;13.540;2023-03-11T13:43:53;14.88;;;13.38;;
14738;SDS011;7461;52.440;13.540;2023-03-11T13:46:23;13.75;;;12.57;;
14738;SDS011;7461;52.440;13.540;2023-03-11T13:48:55;13.25;;;12.20;;
14738;SDS011;7461;52.440;13.540;2023-03-11T13:51:29;12.98;;;11.82;;
14738;SDS011;7461;52.440;13.540;2023-03-11T13:53:58;13.95;;;12.98;;
14738;SDS011;7461;52.440;13.540;2023-03-11T13:56:29;14.50;;;13.38;;
14738;SDS011;7461;52.440;13.540;2023-03-11T14:01:39;11.88;;;10.88;;
14738;SDS011;7461;52.440;13.540;2023-03-11T14:04:10;12.48;;;11.63;;
14738;SDS011;7461;52.440;13.540;2023-03-11T14:06:37;9.73;;;9.13;;
14738;SDS011;7461;52.440;13.540;2023-03-11T14:09:05;11.13;;;10.32;;
14738;SDS011;7461;52.440;13.540;2023-03-11T14:11:32;10.00;;;9.18;;
14738;SDS011;7461;52.440;13.540;2023-03-11T14:13:59;9.38;;;8.73;;
14738;SDS011;7461;52.440;13.540;2023-03-11T14:16:27;8.70;;;8.10;;
14738;SDS011;7461;52.440;13.540;2023-03-11T14:19:03;8.27;;;7.68;;
14738;SDS011;7461;52.440;13.540;2023-03-11T14:21:34;9.00;;;8.30;;
14738;SDS011;7461;52.440;13.540;2023-03-11T14:24:01;9.70;;;8.93;;
14738;SDS011;7461;52.440;13.540;2023-03-11T14:26:31;8.43;;;7.80;;
14738;SDS011;7461;52.440;13.540;2023-03-11T14:29:01;7.35;;;6.75;;
14738;SDS011;7461;52.440;13.540;2023-03-11T14:31:33;7.75;;;7.25;;
14738;SDS011;7461;52.440;13.540;2023-03-11T14:34:02;7.50;;;6.57;;
14738;SDS011;7461;52.440;13.540;2023-03-11T14:36:42;8.48;;;7.80;;
14738;SDS011;7461;52.440;13.540;2023-03-11T14:39:25;9.70;;;9.00;;
14738;SDS011;7461;52.440;13.540;2023-03-11T14:41:54;8.45;;;7.85;;
14738;SDS011;7461;52.440;13.540;2023-03-11T14:44:22;8.98;;;8.18;;
14738;SDS011;7461;52.440;13.540;2023-03-11T14:46:50;9.90;;;9.00;;
14738;SDS011;7461;52.440;13.540;2023-03-11T14:49:18;7.55;;;7.05;;
14738;SDS011;7461;52.440;13.540;2023-03-11T14:51:49;6.88;;;6.45;;
14738;SDS011;7461;52.440;13.540;2023-03-11T14:54:18;8.93;;;8.13;;
14738;SDS011;7461;52.440;13.540;2023-03-11T14:56:49;8.50;;;7.90;;
14738;SDS011;7461;52.440;13.540;2023-03-11T14:59:20;9.40;;;8.70;;
14738;SDS011;7461;52.440;13.540;2023-03-11T15:02:18;8.25;;;7.65;;
14738;SDS011;7461;52.440;13.540;2023-03-11T15:04:48;8.93;;;8.10;;
14738;SDS011;7461;52.440;13.540;2023-03-11T15:07:18;8.52;;;8.00;;
14738;SDS011;7461;52.440;13.540;2023-03-11T15:09:46;8.15;;;7.63;;
14738;SDS011;7461;52.440;13.540;2023-03-11T15:12:28;7.38;;;6.90;;